Time,TemperatureF,DewpointF,PressureIn,WindDirection,WindDirectionDegrees,WindSpeedMPH,WindSpeedGustMPH,Humidity,HourlyPrecipIn,Conditions,Clouds,dailyrainin,SoftwareType,DateUTC
2013-02-26 00:00:00,38.0,33.8,29.87,WSW,248,0.4,1.1,85,0.00,,,0.00,WUHU216HW,2013-02-26 08:00:00,
2013-02-26 00:05:00,37.8,33.7,29.86,NNE,23,0.7,1.8,85,0.00,,,0.00,WUHU216HW,2013-02-26 08:05:00,
2013-02-26 00:10:00,37.8,33.7,29.87,North,0,0.0,1.8,85,0.00,,,0.00,WUHU216HW,2013-02-26 08:10:00,
2013-02-26 00:15:00,37.6,33.5,29.87,NNW,338,0.7,1.3,85,0.00,,,0.00,WUHU216HW,2013-02-26 08:15:00,
2013-02-26 00:20:00,37.4,33.6,29.86,NNE,23,0.7,1.3,86,0.00,,,0.00,WUHU216HW,2013-02-26 08:20:00,
2013-02-26 00:25:00,37.1,33.2,29.86,NNE,23,0.7,1.1,86,0.00,,,0.00,WUHU216HW,2013-02-26 08:25:00,
2013-02-26 00:30:00,36.9,33.0,29.86,NNE,23,0.4,1.1,86,0.00,,,0.00,WUHU216HW,2013-02-26 08:30:00,
2013-02-26 00:35:00,36.7,32.9,29.86,NNE,23,0.0,1.1,86,0.00,,,0.00,WUHU216HW,2013-02-26 08:35:00,
2013-02-26 00:40:00,36.5,32.7,29.86,NE,45,0.0,0.9,86,0.00,,,0.00,WUHU216HW,2013-02-26 08:40:00,
2013-02-26 00:45:00,36.4,32.8,29.86,NNE,23,0.0,0.9,87,0.00,,,0.00,WUHU216HW,2013-02-26 08:45:00,
2013-02-26 00:50:00,36.4,32.8,29.86,East,90,0.0,1.8,87,0.00,,,0.00,WUHU216HW,2013-02-26 08:50:00,
2013-02-26 00:55:00,36.4,32.8,29.86,NNE,23,0.0,1.8,87,0.00,,,0.00,WUHU216HW,2013-02-26 08:55:00,
2013-02-26 01:00:00,36.4,32.8,29.87,NNE,23,0.0,0.9,87,0.00,,,0.00,WUHU216HW,2013-02-26 09:00:00,
2013-02-26 01:05:00,36.2,32.6,29.87,North,0,0.2,0.4,87,0.00,,,0.00,WUHU216HW,2013-02-26 09:05:00,
2013-02-26 01:10:00,36.0,32.4,29.87,North,0,0.0,0.4,87,0.00,,,0.00,WUHU216HW,2013-02-26 09:10:00,
2013-02-26 01:15:00,36.0,32.4,29.87,North,0,0.0,0.2,87,0.00,,,0.00,WUHU216HW,2013-02-26 09:15:00,
2013-02-26 01:20:00,35.8,32.2,29.87,North,0,0.0,0.0,87,0.00,,,0.00,WUHU216HW,2013-02-26 09:20:00,
2013-02-26 01:25:00,35.8,32.6,29.88,North,0,0.9,1.1,88,0.00,,,0.00,WUHU216HW,2013-02-26 09:25:00,
2013-02-26 01:30:00,35.6,31.8,29.88,North,0,1.3,1.3,86,0.00,,,0.00,WUHU216HW,2013-02-26 09:30:00,
2013-02-26 01:35:00,35.6,32.0,29.88,North,0,0.4,1.3,87,0.00,,,0.00,WUHU216HW,2013-02-26 09:35:00,
2013-02-26 01:40:00,35.6,32.0,29.88,North,0,0.9,1.3,87,0.00,,,0.00,WUHU216HW,2013-02-26 09:40:00,
2013-02-26 01:45:00,35.5,31.9,29.88,North,0,0.4,1.1,87,0.00,,,0.00,WUHU216HW,2013-02-26 09:45:00,
2013-02-26 01:50:00,35.3,31.7,29.88,North,0,0.0,0.9,87,0.00,,,0.00,WUHU216HW,2013-02-26 09:50:00,
2013-02-26 01:55:00,35.3,31.7,29.88,North,0,0.0,0.7,87,0.00,,,0.00,WUHU216HW,2013-02-26 09:55:00,
2013-02-26 02:00:00,35.1,31.5,29.88,North,0,0.0,0.0,87,0.00,,,0.00,WUHU216HW,2013-02-26 10:00:00,
2013-02-26 02:05:00,35.1,31.9,29.89,North,0,0.0,0.7,88,0.00,,,0.00,WUHU216HW,2013-02-26 10:05:00,
2013-02-26 02:10:00,35.1,31.9,29.88,North,0,0.4,0.7,88,0.00,,,0.00,WUHU216HW,2013-02-26 10:10:00,
2013-02-26 02:15:00,35.1,31.9,29.88,North,0,0.0,0.4,88,0.00,,,0.00,WUHU216HW,2013-02-26 10:15:00,
2013-02-26 02:20:00,35.1,31.9,29.88,North,0,0.4,0.7,88,0.00,,,0.00,WUHU216HW,2013-02-26 10:20:00,
2013-02-26 02:25:00,35.1,31.9,29.88,North,0,0.4,0.7,88,0.00,,,0.00,WUHU216HW,2013-02-26 10:25:00,
2013-02-26 02:30:00,35.1,31.9,29.88,North,0,0.0,0.7,88,0.00,,,0.00,WUHU216HW,2013-02-26 10:30:00,
2013-02-26 02:35:00,35.1,31.9,29.88,North,0,0.0,0.0,88,0.00,,,0.00,WUHU216HW,2013-02-26 10:35:00,
2013-02-26 02:40:00,35.1,32.1,29.88,North,0,0.0,0.0,89,0.00,,,0.00,WUHU216HW,2013-02-26 10:40:00,
2013-02-26 02:45:00,34.9,31.7,29.88,North,0,0.0,0.0,88,0.00,,,0.00,WUHU216HW,2013-02-26 10:45:00,
2013-02-26 02:50:00,34.9,32.0,29.88,North,0,0.0,0.0,89,0.00,,,0.00,WUHU216HW,2013-02-26 10:50:00,
2013-02-26 02:55:00,34.7,31.8,29.88,North,0,0.0,0.0,89,0.00,,,0.00,WUHU216HW,2013-02-26 10:55:00,
2013-02-26 03:00:00,34.6,31.6,29.88,NNE,23,0.0,0.9,89,0.00,,,0.00,WUHU216HW,2013-02-26 11:00:00,
2013-02-26 03:05:00,34.6,31.6,29.88,NNE,23,0.0,0.9,89,0.00,,,0.00,WUHU216HW,2013-02-26 11:05:00,
2013-02-26 03:10:00,34.6,31.6,29.88,NNE,23,0.0,0.9,89,0.00,,,0.00,WUHU216HW,2013-02-26 11:10:00,
2013-02-26 03:15:00,34.4,31.4,29.88,NNE,23,0.7,0.7,89,0.00,,,0.00,WUHU216HW,2013-02-26 11:15:00,
2013-02-26 03:20:00,34.4,31.4,29.88,NNE,23,0.0,0.7,89,0.00,,,0.00,WUHU216HW,2013-02-26 11:20:00,
2013-02-26 03:25:00,34.2,31.2,29.88,NNE,23,0.0,0.7,89,0.00,,,0.00,WUHU216HW,2013-02-26 11:25:00,
2013-02-26 03:30:00,34.2,31.2,29.88,NNE,23,0.0,0.0,89,0.00,,,0.00,WUHU216HW,2013-02-26 11:30:00,
2013-02-26 03:35:00,34.2,31.2,29.88,NNE,23,0.4,0.4,89,0.00,,,0.00,WUHU216HW,2013-02-26 11:35:00,
2013-02-26 03:40:00,34.2,31.2,29.88,NNE,23,0.0,0.4,89,0.00,,,0.00,WUHU216HW,2013-02-26 11:40:00,
2013-02-26 03:45:00,34.0,31.1,29.88,NNE,23,0.9,0.9,89,0.00,,,0.00,WUHU216HW,2013-02-26 11:45:00,
2013-02-26 03:50:00,33.8,30.9,29.88,NNE,23,0.2,0.9,89,0.00,,,0.00,WUHU216HW,2013-02-26 11:50:00,
2013-02-26 03:55:00,33.8,30.9,29.88,NNE,23,0.7,0.9,89,0.00,,,0.00,WUHU216HW,2013-02-26 11:55:00,
2013-02-26 04:00:00,33.7,30.7,29.88,NNE,23,0.0,0.7,89,0.00,,,0.00,WUHU216HW,2013-02-26 12:00:00,
2013-02-26 04:05:00,33.7,30.7,29.88,NNE,23,0.2,0.7,89,0.00,,,0.00,WUHU216HW,2013-02-26 12:05:00,
2013-02-26 04:10:00,33.5,30.5,29.88,NNE,23,0.4,0.9,89,0.00,,,0.00,WUHU216HW,2013-02-26 12:10:00,
2013-02-26 04:15:00,33.3,30.3,29.88,NNE,23,0.0,0.9,89,0.00,,,0.00,WUHU216HW,2013-02-26 12:15:00,
2013-02-26 04:20:00,33.1,30.5,29.88,NNE,23,0.9,0.9,90,0.00,,,0.00,WUHU216HW,2013-02-26 12:20:00,
2013-02-26 04:25:00,33.1,30.5,29.88,NNE,23,0.0,1.1,90,0.00,,,0.00,WUHU216HW,2013-02-26 12:25:00,
2013-02-26 04:30:00,32.9,30.3,29.88,NNE,23,0.0,1.1,90,0.00,,,0.00,WUHU216HW,2013-02-26 12:30:00,
2013-02-26 04:35:00,32.9,30.3,29.88,NNE,23,0.0,0.0,90,0.00,,,0.00,WUHU216HW,2013-02-26 12:35:00,
2013-02-26 04:40:00,32.8,30.2,29.88,NNE,23,0.7,0.9,90,0.00,,,0.00,WUHU216HW,2013-02-26 12:40:00,
2013-02-26 04:45:00,32.8,30.2,29.88,NNE,23,0.4,0.9,90,0.00,,,0.00,WUHU216HW,2013-02-26 12:45:00,
2013-02-26 04:50:00,32.6,30.0,29.89,NNE,23,0.0,0.7,90,0.00,,,0.00,WUHU216HW,2013-02-26 12:50:00,
2013-02-26 04:55:00,32.4,29.9,29.89,NNE,23,0.0,0.4,90,0.00,,,0.00,WUHU216HW,2013-02-26 12:55:00,
2013-02-26 05:00:00,32.4,29.9,29.89,NNE,23,0.0,0.0,90,0.00,,,0.00,WUHU216HW,2013-02-26 13:00:00,
2013-02-26 05:05:00,32.2,29.7,29.89,NNE,23,0.0,0.0,90,0.00,,,0.00,WUHU216HW,2013-02-26 13:05:00,
2013-02-26 05:10:00,32.0,29.5,29.90,NNE,23,0.0,0.0,90,0.00,,,0.00,WUHU216HW,2013-02-26 13:10:00,
2013-02-26 05:15:00,32.0,29.5,29.90,NNE,23,0.0,0.0,90,0.00,,,0.00,WUHU216HW,2013-02-26 13:15:00,
2013-02-26 05:20:00,32.0,29.3,29.90,NNE,23,0.0,0.0,89,0.00,,,0.00,WUHU216HW,2013-02-26 13:20:00,
2013-02-26 05:25:00,31.9,29.1,29.90,NNE,23,0.0,0.4,89,0.00,,,0.00,WUHU216HW,2013-02-26 13:25:00,
2013-02-26 05:30:00,32.0,29.5,29.90,NNE,23,0.0,0.4,90,0.00,,,0.00,WUHU216HW,2013-02-26 13:30:00,
2013-02-26 05:35:00,32.0,29.5,29.90,NNE,23,0.0,0.7,90,0.00,,,0.00,WUHU216HW,2013-02-26 13:35:00,
2013-02-26 05:40:00,31.9,29.3,29.90,NNE,23,0.0,1.1,90,0.00,,,0.00,WUHU216HW,2013-02-26 13:40:00,
2013-02-26 05:45:00,31.9,29.3,29.90,NNE,23,0.7,1.1,90,0.00,,,0.00,WUHU216HW,2013-02-26 13:45:00,
2013-02-26 05:50:00,32.0,29.5,29.90,NNE,23,0.9,1.1,90,0.00,,,0.00,WUHU216HW,2013-02-26 13:50:00,
2013-02-26 05:55:00,32.0,29.8,29.90,NNE,23,0.0,0.9,91,0.00,,,0.00,WUHU216HW,2013-02-26 13:55:00,
2013-02-26 06:00:00,32.2,30.0,29.90,NNE,23,0.4,0.7,91,0.00,,,0.00,WUHU216HW,2013-02-26 14:00:00,
2013-02-26 06:05:00,32.4,30.3,29.90,NNE,23,0.4,0.7,92,0.00,,,0.00,WUHU216HW,2013-02-26 14:05:00,
2013-02-26 06:10:00,32.4,30.3,29.90,NE,45,0.0,0.7,92,0.00,,,0.00,WUHU216HW,2013-02-26 14:10:00,
2013-02-26 06:15:00,32.8,30.7,29.90,NE,45,0.4,0.7,92,0.00,,,0.00,WUHU216HW,2013-02-26 14:15:00,
2013-02-26 06:20:00,32.8,30.7,29.90,NE,45,0.2,0.7,92,0.00,,,0.00,WUHU216HW,2013-02-26 14:20:00,
2013-02-26 06:25:00,32.9,30.9,29.90,NE,45,0.4,0.9,92,0.00,,,0.00,WUHU216HW,2013-02-26 14:25:00,
2013-02-26 06:30:00,33.1,31.1,29.90,NE,45,0.2,0.9,92,0.00,,,0.00,WUHU216HW,2013-02-26 14:30:00,
2013-02-26 06:35:00,33.3,31.1,29.90,NE,45,0.0,0.4,92,0.00,,,0.00,WUHU216HW,2013-02-26 14:35:00,
2013-02-26 06:40:00,33.5,31.3,29.90,NE,45,0.0,0.4,92,0.00,,,0.00,WUHU216HW,2013-02-26 14:40:00,
2013-02-26 06:45:00,33.7,31.5,29.90,NE,45,0.7,1.3,92,0.00,,,0.00,WUHU216HW,2013-02-26 14:45:00,
2013-02-26 06:50:00,33.8,31.7,29.90,NE,45,0.4,1.3,92,0.00,,,0.00,WUHU216HW,2013-02-26 14:50:00,
2013-02-26 06:55:00,33.8,31.7,29.90,NE,45,0.0,1.3,92,0.00,,,0.00,WUHU216HW,2013-02-26 14:55:00,
2013-02-26 07:00:00,34.2,32.0,29.90,NE,45,0.7,0.9,92,0.00,,,0.00,WUHU216HW,2013-02-26 15:00:00,
2013-02-26 07:05:00,34.2,32.0,29.90,NE,45,0.0,1.1,92,0.00,,,0.00,WUHU216HW,2013-02-26 15:05:00,
2013-02-26 07:10:00,34.4,32.2,29.90,NE,45,0.4,1.1,92,0.00,,,0.00,WUHU216HW,2013-02-26 15:10:00,
2013-02-26 07:15:00,34.6,32.4,29.91,NNE,23,0.7,0.9,92,0.00,,,0.00,WUHU216HW,2013-02-26 15:15:00,
2013-02-26 07:20:00,34.7,32.6,29.91,NNE,23,1.1,1.3,92,0.00,,,0.00,WUHU216HW,2013-02-26 15:20:00,
2013-02-26 07:25:00,34.9,32.8,29.91,NNE,23,0.7,1.3,92,0.00,,,0.00,WUHU216HW,2013-02-26 15:25:00,
2013-02-26 07:30:00,35.1,32.9,29.91,NNE,23,0.7,1.1,92,0.00,,,0.00,WUHU216HW,2013-02-26 15:30:00,
2013-02-26 07:35:00,35.3,33.1,29.90,NNE,23,0.9,1.1,92,0.00,,,0.00,WUHU216HW,2013-02-26 15:35:00,
2013-02-26 07:40:00,35.5,33.3,29.90,North,0,0.4,1.1,92,0.00,,,0.00,WUHU216HW,2013-02-26 15:40:00,
2013-02-26 07:45:00,35.6,33.5,29.91,North,0,0.7,1.3,92,0.00,,,0.00,WUHU216HW,2013-02-26 15:45:00,
2013-02-26 07:50:00,36.0,33.8,29.91,NNE,23,0.0,2.5,92,0.00,,,0.00,WUHU216HW,2013-02-26 15:50:00,
2013-02-26 07:55:00,36.4,34.5,29.91,North,0,0.4,2.5,93,0.00,,,0.00,WUHU216HW,2013-02-26 15:55:00,
2013-02-26 08:00:00,36.4,34.5,29.91,NNW,338,1.1,1.3,93,0.00,,,0.00,WUHU216HW,2013-02-26 16:00:00,
2013-02-26 08:05:00,36.7,34.8,29.91,NNE,23,0.0,1.3,93,0.00,,,0.00,WUHU216HW,2013-02-26 16:05:00,
2013-02-26 08:10:00,36.9,35.0,29.91,North,0,1.8,1.8,93,0.00,,,0.00,WUHU216HW,2013-02-26 16:10:00,
2013-02-26 08:15:00,37.3,35.4,29.91,North,0,1.3,2.5,93,0.00,,,0.00,WUHU216HW,2013-02-26 16:15:00,
2013-02-26 08:20:00,37.4,35.6,29.91,North,0,1.3,2.5,93,0.00,,,0.00,WUHU216HW,2013-02-26 16:20:00,
2013-02-26 08:25:00,37.8,35.9,29.91,NNW,338,1.6,1.8,93,0.00,,,0.00,WUHU216HW,2013-02-26 16:25:00,
2013-02-26 08:30:00,37.8,35.6,29.92,NNW,338,1.6,1.8,92,0.01,,,0.01,WUHU216HW,2013-02-26 16:30:00,
2013-02-26 08:35:00,38.0,35.8,29.92,North,0,0.4,1.6,92,0.01,,,0.01,WUHU216HW,2013-02-26 16:35:00,
2013-02-26 08:40:00,38.2,36.0,29.92,North,0,0.9,1.6,92,0.01,,,0.01,WUHU216HW,2013-02-26 16:40:00,
2013-02-26 08:45:00,38.5,36.4,29.92,North,0,0.7,1.1,92,0.01,,,0.01,WUHU216HW,2013-02-26 16:45:00,
2013-02-26 08:50:00,38.7,36.5,29.92,North,0,0.4,1.1,92,0.01,,,0.01,WUHU216HW,2013-02-26 16:50:00,
2013-02-26 08:55:00,38.9,36.7,29.92,North,0,0.2,1.6,92,0.01,,,0.01,WUHU216HW,2013-02-26 16:55:00,
2013-02-26 09:00:00,39.2,37.4,29.92,NNE,23,0.7,2.2,93,0.01,,,0.01,WUHU216HW,2013-02-26 17:00:00,
2013-02-26 09:05:00,39.4,37.5,29.92,NE,45,1.6,2.2,93,0.01,,,0.01,WUHU216HW,2013-02-26 17:05:00,
2013-02-26 09:10:00,39.6,37.7,29.91,NNE,23,1.1,3.1,93,0.01,,,0.01,WUHU216HW,2013-02-26 17:10:00,
2013-02-26 09:15:00,39.8,37.9,29.91,North,0,2.2,3.1,93,0.01,,,0.01,WUHU216HW,2013-02-26 17:15:00,
2013-02-26 09:20:00,40.1,38.3,29.91,NNW,338,0.2,2.9,93,0.01,,,0.01,WUHU216HW,2013-02-26 17:20:00,
2013-02-26 09:25:00,40.7,38.8,29.91,NNW,338,0.4,2.0,93,0.01,,,0.01,WUHU216HW,2013-02-26 17:25:00,
2013-02-26 09:30:00,41.0,38.9,29.91,West,270,0.0,2.7,92,0.00,,,0.01,WUHU216HW,2013-02-26 17:30:00,
2013-02-26 09:35:00,41.4,39.2,29.91,WSW,248,1.1,2.7,92,0.00,,,0.01,WUHU216HW,2013-02-26 17:35:00,
2013-02-26 09:40:00,41.8,39.3,29.91,North,0,2.7,2.7,91,0.00,,,0.01,WUHU216HW,2013-02-26 17:40:00,
2013-02-26 09:45:00,42.3,39.6,29.90,NNE,23,1.6,3.4,90,0.00,,,0.01,WUHU216HW,2013-02-26 17:45:00,
2013-02-26 09:50:00,42.7,40.0,29.90,NW,315,1.6,4.0,90,0.00,,,0.01,WUHU216HW,2013-02-26 17:50:00,
2013-02-26 09:55:00,42.8,39.3,29.90,North,0,2.0,4.0,87,0.00,,,0.01,WUHU216HW,2013-02-26 17:55:00,
2013-02-26 10:00:00,42.8,39.3,29.89,North,0,1.1,3.4,87,0.00,,,0.01,WUHU216HW,2013-02-26 18:00:00,
2013-02-26 10:05:00,43.2,39.6,29.89,NNE,23,1.8,3.4,87,0.00,,,0.01,WUHU216HW,2013-02-26 18:05:00,
2013-02-26 10:10:00,43.4,39.8,29.89,North,0,2.9,3.1,87,0.00,,,0.01,WUHU216HW,2013-02-26 18:10:00,
2013-02-26 10:15:00,43.6,40.0,29.89,NNE,23,1.1,3.4,87,0.00,,,0.01,WUHU216HW,2013-02-26 18:15:00,
2013-02-26 10:20:00,43.9,39.7,29.88,North,0,0.4,4.7,85,0.00,,,0.01,WUHU216HW,2013-02-26 18:20:00,
2013-02-26 10:25:00,44.3,39.4,29.89,North,0,3.4,4.7,83,0.00,,,0.01,WUHU216HW,2013-02-26 18:25:00,
2013-02-26 10:30:00,44.6,39.5,29.89,ENE,68,0.0,4.0,82,0.00,,,0.01,WUHU216HW,2013-02-26 18:30:00,
2013-02-26 10:35:00,44.8,39.1,29.89,NNW,338,3.4,4.3,80,0.00,,,0.01,WUHU216HW,2013-02-26 18:35:00,
2013-02-26 10:40:00,44.6,38.9,29.89,WNW,293,0.9,6.9,80,0.00,,,0.01,WUHU216HW,2013-02-26 18:40:00,
2013-02-26 10:45:00,44.6,39.2,29.88,NE,45,1.3,6.9,81,0.00,,,0.01,WUHU216HW,2013-02-26 18:45:00,
2013-02-26 10:50:00,44.5,39.0,29.88,West,270,2.5,3.8,81,0.00,,,0.01,WUHU216HW,2013-02-26 18:50:00,
2013-02-26 10:55:00,44.6,39.2,29.88,SW,225,0.9,2.9,81,0.00,,,0.01,WUHU216HW,2013-02-26 18:55:00,
2013-02-26 11:00:00,44.8,39.3,29.88,NE,45,1.1,3.4,81,0.00,,,0.01,WUHU216HW,2013-02-26 19:00:00,
2013-02-26 11:05:00,44.6,38.9,29.88,NW,315,1.3,3.4,80,0.00,,,0.01,WUHU216HW,2013-02-26 19:05:00,
2013-02-26 11:10:00,44.6,38.5,29.88,WNW,293,1.1,2.5,79,0.00,,,0.01,WUHU216HW,2013-02-26 19:10:00,
2013-02-26 11:15:00,44.6,38.5,29.88,NW,315,2.0,2.5,79,0.00,,,0.01,WUHU216HW,2013-02-26 19:15:00,
2013-02-26 11:20:00,44.6,38.2,29.87,WSW,248,0.7,2.5,78,0.00,,,0.01,WUHU216HW,2013-02-26 19:20:00,
2013-02-26 11:25:00,44.6,38.5,29.87,West,270,1.1,2.5,79,0.00,,,0.01,WUHU216HW,2013-02-26 19:25:00,
2013-02-26 11:30:00,44.8,38.7,29.87,NE,45,1.3,2.5,79,0.00,,,0.01,WUHU216HW,2013-02-26 19:30:00,
2013-02-26 11:35:00,45.0,38.9,29.86,ENE,68,2.2,3.6,79,0.00,,,0.01,WUHU216HW,2013-02-26 19:35:00,
2013-02-26 11:40:00,45.0,38.5,29.86,NE,45,1.8,5.1,78,0.00,,,0.01,WUHU216HW,2013-02-26 19:40:00,
2013-02-26 11:45:00,45.0,38.5,29.86,NNE,23,1.1,5.1,78,0.00,,,0.01,WUHU216HW,2013-02-26 19:45:00,
2013-02-26 11:50:00,45.2,39.1,29.86,NNE,23,3.1,3.1,79,0.00,,,0.01,WUHU216HW,2013-02-26 19:50:00,
2013-02-26 11:55:00,45.4,38.9,29.86,NW,315,0.0,3.1,78,0.00,,,0.01,WUHU216HW,2013-02-26 19:55:00,
2013-02-26 12:00:00,45.5,38.8,29.86,WNW,293,1.8,3.1,77,0.00,,,0.01,WUHU216HW,2013-02-26 20:00:00,
2013-02-26 12:05:00,45.7,39.0,29.86,North,0,1.1,3.1,77,0.00,,,0.01,WUHU216HW,2013-02-26 20:05:00,
2013-02-26 12:10:00,45.7,39.0,29.86,NE,45,1.1,3.1,77,0.00,,,0.01,WUHU216HW,2013-02-26 20:10:00,
2013-02-26 12:15:00,45.9,38.8,29.86,WNW,293,2.5,2.9,76,0.00,,,0.01,WUHU216HW,2013-02-26 20:15:00,
2013-02-26 12:20:00,46.1,37.9,29.85,NNW,338,1.1,4.5,73,0.00,,,0.01,WUHU216HW,2013-02-26 20:20:00,
2013-02-26 12:25:00,46.1,38.6,29.85,North,0,0.9,4.5,75,0.00,,,0.01,WUHU216HW,2013-02-26 20:25:00,
2013-02-26 12:30:00,46.3,38.8,29.85,WNW,293,1.6,4.0,75,0.00,,,0.01,WUHU216HW,2013-02-26 20:30:00,
2013-02-26 12:35:00,46.3,37.8,29.85,NE,45,2.2,4.5,72,0.00,,,0.01,WUHU216HW,2013-02-26 20:35:00,
2013-02-26 12:40:00,46.3,37.8,29.84,NE,45,2.5,4.5,72,0.00,,,0.01,WUHU216HW,2013-02-26 20:40:00,
2013-02-26 12:45:00,46.4,38.0,29.85,West,270,3.8,5.4,72,0.00,,,0.01,WUHU216HW,2013-02-26 20:45:00,
2013-02-26 12:50:00,46.4,37.6,29.84,ESE,113,0.7,5.4,71,0.00,,,0.01,WUHU216HW,2013-02-26 20:50:00,
2013-02-26 12:55:00,46.4,37.6,29.84,NNE,23,3.4,4.3,71,0.00,,,0.01,WUHU216HW,2013-02-26 20:55:00,
2013-02-26 13:00:00,46.8,37.9,29.84,North,0,1.1,4.3,71,0.00,,,0.01,WUHU216HW,2013-02-26 21:00:00,
2013-02-26 13:05:00,46.8,38.3,29.83,North,0,2.5,3.4,72,0.00,,,0.01,WUHU216HW,2013-02-26 21:05:00,
2013-02-26 13:10:00,47.0,38.4,29.83,East,90,1.8,4.0,72,0.00,,,0.01,WUHU216HW,2013-02-26 21:10:00,
2013-02-26 13:15:00,47.0,38.1,29.83,North,0,1.8,4.0,71,0.00,,,0.01,WUHU216HW,2013-02-26 21:15:00,
2013-02-26 13:20:00,46.8,36.8,29.83,NNE,23,2.5,4.0,68,0.00,,,0.01,WUHU216HW,2013-02-26 21:20:00,
2013-02-26 13:25:00,47.0,37.4,29.83,East,90,4.5,4.5,69,0.00,,,0.01,WUHU216HW,2013-02-26 21:25:00,
2013-02-26 13:30:00,47.0,37.7,29.83,NNW,338,0.7,4.7,70,0.00,,,0.01,WUHU216HW,2013-02-26 21:30:00,
2013-02-26 13:35:00,47.0,37.4,29.83,NNW,338,2.5,4.7,69,0.00,,,0.01,WUHU216HW,2013-02-26 21:35:00,
2013-02-26 13:40:00,47.2,37.5,29.83,NNW,338,1.8,5.4,69,0.00,,,0.01,WUHU216HW,2013-02-26 21:40:00,
2013-02-26 13:45:00,47.3,37.7,29.83,North,0,1.8,5.4,69,0.00,,,0.01,WUHU216HW,2013-02-26 21:45:00,
2013-02-26 13:50:00,47.5,37.4,29.82,NNE,23,1.3,3.6,68,0.00,,,0.01,WUHU216HW,2013-02-26 21:50:00,
2013-02-26 13:55:00,47.7,38.0,29.82,West,270,2.2,3.6,69,0.00,,,0.01,WUHU216HW,2013-02-26 21:55:00,
2013-02-26 14:00:00,47.7,37.6,29.81,North,0,2.5,3.4,68,0.00,,,0.01,WUHU216HW,2013-02-26 22:00:00,
2013-02-26 14:05:00,47.7,38.0,29.81,NNW,338,0.7,4.3,69,0.00,,,0.01,WUHU216HW,2013-02-26 22:05:00,
2013-02-26 14:10:00,47.7,37.6,29.81,NNW,338,1.1,4.3,68,0.00,,,0.01,WUHU216HW,2013-02-26 22:10:00,
2013-02-26 14:15:00,47.5,37.4,29.81,NNE,23,1.8,3.4,68,0.00,,,0.01,WUHU216HW,2013-02-26 22:15:00,
2013-02-26 14:20:00,47.3,37.3,29.81,South,180,0.4,2.7,68,0.00,,,0.01,WUHU216HW,2013-02-26 22:20:00,
2013-02-26 14:25:00,47.3,37.3,29.81,NNE,23,3.1,3.4,68,0.00,,,0.01,WUHU216HW,2013-02-26 22:25:00,
2013-02-26 14:30:00,47.2,37.2,29.81,NNW,338,1.1,3.4,68,0.00,,,0.01,WUHU216HW,2013-02-26 22:30:00,
2013-02-26 14:35:00,47.2,36.7,29.81,SE,135,0.4,2.9,67,0.00,,,0.01,WUHU216HW,2013-02-26 22:35:00,
2013-02-26 14:40:00,47.0,37.0,29.81,East,90,2.5,5.8,68,0.00,,,0.01,WUHU216HW,2013-02-26 22:40:00,
2013-02-26 14:45:00,46.8,36.5,29.81,North,0,0.9,5.8,67,0.00,,,0.01,WUHU216HW,2013-02-26 22:45:00,
2013-02-26 14:50:00,46.6,36.6,29.81,NNW,338,1.1,2.9,68,0.00,,,0.01,WUHU216HW,2013-02-26 22:50:00,
2013-02-26 14:55:00,46.4,35.6,29.81,North,0,1.6,2.7,66,0.00,,,0.01,WUHU216HW,2013-02-26 22:55:00,
2013-02-26 15:00:00,46.4,36.5,29.81,NNW,338,2.2,3.8,68,0.00,,,0.01,WUHU216HW,2013-02-26 23:00:00,
2013-02-26 15:05:00,46.6,37.0,29.81,NE,45,0.2,3.8,69,0.00,,,0.01,WUHU216HW,2013-02-26 23:05:00,
2013-02-26 15:10:00,46.6,37.0,29.81,NE,45,0.7,2.2,69,0.00,,,0.01,WUHU216HW,2013-02-26 23:10:00,
2013-02-26 15:15:00,46.6,37.0,29.81,North,0,1.3,2.2,69,0.00,,,0.01,WUHU216HW,2013-02-26 23:15:00,
2013-02-26 15:20:00,46.6,37.0,29.81,North,0,0.7,2.0,69,0.00,,,0.01,WUHU216HW,2013-02-26 23:20:00,
2013-02-26 15:25:00,46.6,37.5,29.81,North,0,1.1,2.0,70,0.00,,,0.01,WUHU216HW,2013-02-26 23:25:00,
2013-02-26 15:30:00,46.6,37.5,29.80,NNE,23,2.7,2.7,70,0.00,,,0.01,WUHU216HW,2013-02-26 23:30:00,
2013-02-26 15:35:00,46.6,37.0,29.80,SSW,203,1.1,2.9,69,0.00,,,0.01,WUHU216HW,2013-02-26 23:35:00,
2013-02-26 15:40:00,46.4,36.9,29.80,NNE,23,0.7,2.9,69,0.00,,,0.01,WUHU216HW,2013-02-26 23:40:00,
2013-02-26 15:45:00,46.6,37.0,29.80,ENE,68,2.2,2.2,69,0.00,,,0.01,WUHU216HW,2013-02-26 23:45:00,
2013-02-26 15:50:00,46.4,36.9,29.79,NE,45,2.5,2.5,69,0.00,,,0.01,WUHU216HW,2013-02-26 23:50:00,
2013-02-26 15:55:00,46.4,36.9,29.79,North,0,1.1,2.5,69,0.00,,,0.01,WUHU216HW,2013-02-26 23:55:00,
2013-02-26 16:00:00,46.3,36.7,29.79,NNE,23,0.4,1.8,69,0.00,,,0.01,WUHU216HW,2013-02-27 00:00:00,
2013-02-26 16:05:00,46.1,36.9,29.79,NNE,23,0.7,1.8,70,0.00,,,0.01,WUHU216HW,2013-02-27 00:05:00,
2013-02-26 16:10:00,46.1,37.3,29.79,North,0,1.6,1.8,71,0.00,,,0.01,WUHU216HW,2013-02-27 00:10:00,
2013-02-26 16:15:00,45.9,37.1,29.79,SSW,203,0.7,2.5,71,0.00,,,0.01,WUHU216HW,2013-02-27 00:15:00,
2013-02-26 16:20:00,45.7,36.9,29.79,NNE,23,0.0,3.6,71,0.00,,,0.01,WUHU216HW,2013-02-27 00:20:00,
2013-02-26 16:25:00,45.7,37.3,29.79,NE,45,1.1,3.6,72,0.00,,,0.01,WUHU216HW,2013-02-27 00:25:00,
2013-02-26 16:30:00,45.7,37.3,29.79,North,0,0.0,1.8,72,0.00,,,0.01,WUHU216HW,2013-02-27 00:30:00,
2013-02-26 16:35:00,45.5,37.1,29.79,North,0,1.1,2.0,72,0.00,,,0.01,WUHU216HW,2013-02-27 00:35:00,
2013-02-26 16:40:00,45.4,36.9,29.79,North,0,0.0,2.0,72,0.00,,,0.01,WUHU216HW,2013-02-27 00:40:00,
2013-02-26 16:45:00,45.2,36.7,29.79,North,0,1.1,1.1,72,0.00,,,0.01,WUHU216HW,2013-02-27 00:45:00,
2013-02-26 16:50:00,45.0,36.6,29.79,NNE,23,0.9,3.6,72,0.00,,,0.01,WUHU216HW,2013-02-27 00:50:00,
2013-02-26 16:55:00,45.0,36.8,29.78,NNW,338,0.9,3.6,73,0.00,,,0.01,WUHU216HW,2013-02-27 00:55:00,
2013-02-26 17:00:00,44.8,36.6,29.78,North,0,0.7,1.8,73,0.00,,,0.01,WUHU216HW,2013-02-27 01:00:00,
2013-02-26 17:05:00,44.6,36.5,29.78,NE,45,0.9,1.8,73,0.00,,,0.01,WUHU216HW,2013-02-27 01:05:00,
2013-02-26 17:10:00,44.6,36.5,29.78,North,0,1.1,1.8,73,0.00,,,0.01,WUHU216HW,2013-02-27 01:10:00,
2013-02-26 17:15:00,44.5,36.4,29.78,North,0,0.7,1.1,73,0.00,,,0.01,WUHU216HW,2013-02-27 01:15:00,
2013-02-26 17:20:00,44.3,36.5,29.78,North,0,0.9,1.6,74,0.00,,,0.01,WUHU216HW,2013-02-27 01:20:00,
2013-02-26 17:25:00,44.3,36.5,29.78,North,0,1.3,1.8,74,0.00,,,0.01,WUHU216HW,2013-02-27 01:25:00,
2013-02-26 17:30:00,44.1,36.4,29.78,North,0,1.3,1.8,74,0.00,,,0.01,WUHU216HW,2013-02-27 01:30:00,
2013-02-26 17:35:00,43.9,36.2,29.78,North,0,1.3,1.8,74,0.00,,,0.01,WUHU216HW,2013-02-27 01:35:00,
2013-02-26 17:40:00,43.9,36.2,29.78,NNE,23,0.9,2.5,74,0.00,,,0.01,WUHU216HW,2013-02-27 01:40:00,
2013-02-26 17:45:00,43.7,36.3,29.77,North,0,0.9,2.5,75,0.00,,,0.01,WUHU216HW,2013-02-27 01:45:00,
2013-02-26 17:50:00,43.7,36.3,29.78,NNE,23,2.5,3.8,75,0.00,,,0.01,WUHU216HW,2013-02-27 01:50:00,
2013-02-26 17:55:00,43.6,36.2,29.78,North,0,0.7,3.8,75,0.00,,,0.01,WUHU216HW,2013-02-27 01:55:00,
2013-02-26 18:00:00,43.6,36.2,29.78,NE,45,0.4,2.5,75,0.00,,,0.01,WUHU216HW,2013-02-27 02:00:00,
2013-02-26 18:05:00,43.4,36.0,29.78,North,0,1.1,1.8,75,0.00,,,0.01,WUHU216HW,2013-02-27 02:05:00,
2013-02-26 18:10:00,43.2,35.8,29.78,North,0,1.6,1.6,75,0.00,,,0.01,WUHU216HW,2013-02-27 02:10:00,
2013-02-26 18:15:00,43.2,35.8,29.78,North,0,2.0,2.0,75,0.00,,,0.01,WUHU216HW,2013-02-27 02:15:00,
2013-02-26 18:21:00,43.2,36.1,29.78,NNE,23,1.1,2.5,76,0.00,,,0.01,WUHU216HW,2013-02-27 02:21:00,
2013-02-26 18:26:00,43.0,36.0,29.78,North,0,1.1,2.5,76,0.00,,,0.01,WUHU216HW,2013-02-27 02:26:00,
2013-02-26 18:31:00,43.0,36.0,29.78,North,0,1.6,2.2,76,0.00,,,0.01,WUHU216HW,2013-02-27 02:31:00,
2013-02-26 18:36:00,43.0,36.0,29.78,North,0,1.8,2.5,76,0.00,,,0.01,WUHU216HW,2013-02-27 02:36:00,
2013-02-26 18:41:00,43.0,36.0,29.78,North,0,1.8,2.5,76,0.00,,,0.01,WUHU216HW,2013-02-27 02:41:00,
2013-02-26 18:46:00,43.7,37.0,29.78,North,0,0.7,2.5,77,0.00,,,0.01,WUHU216HW,2013-02-27 02:46:00,
2013-02-26 18:51:00,45.4,38.9,29.78,North,0,0.7,2.5,78,0.00,,,0.01,WUHU216HW,2013-02-27 02:51:00,
2013-02-26 18:56:00,47.3,40.5,29.78,North,0,1.8,1.8,77,0.00,,,0.01,WUHU216HW,2013-02-27 02:56:00,
2013-02-26 19:01:00,47.5,40.0,29.78,NNE,23,1.1,1.8,75,0.00,,,0.01,WUHU216HW,2013-02-27 03:01:00,
2013-02-26 19:06:00,47.2,39.2,29.78,NNE,23,1.1,2.0,74,0.00,,,0.01,WUHU216HW,2013-02-27 03:06:00,
2013-02-26 19:11:00,46.1,38.3,29.78,North,0,0.7,2.0,74,0.00,,,0.01,WUHU216HW,2013-02-27 03:11:00,
2013-02-26 19:16:00,45.4,37.5,29.78,NNE,23,2.0,2.7,74,0.00,,,0.01,WUHU216HW,2013-02-27 03:16:00,
2013-02-26 19:21:00,44.6,36.8,29.78,North,0,0.9,2.7,74,0.00,,,0.01,WUHU216HW,2013-02-27 03:21:00,
2013-02-26 19:26:00,44.3,36.5,29.78,North,0,0.4,2.5,74,0.00,,,0.01,WUHU216HW,2013-02-27 03:26:00,
2013-02-26 19:31:00,43.9,36.2,29.78,North,0,0.4,1.3,74,0.00,,,0.01,WUHU216HW,2013-02-27 03:31:00,
2013-02-26 19:36:00,43.7,36.3,29.77,North,0,1.8,1.8,75,0.00,,,0.01,WUHU216HW,2013-02-27 03:36:00,
2013-02-26 19:41:00,43.6,36.2,29.77,North,0,1.1,3.6,75,0.00,,,0.01,WUHU216HW,2013-02-27 03:41:00,
2013-02-26 19:46:00,43.4,36.0,29.77,North,0,1.8,3.6,75,0.00,,,0.01,WUHU216HW,2013-02-27 03:46:00,
2013-02-26 19:51:00,43.2,36.1,29.77,North,0,0.7,1.8,76,0.00,,,0.01,WUHU216HW,2013-02-27 03:51:00,
2013-02-26 19:56:00,43.0,36.0,29.77,NNW,338,0.4,1.8,76,0.00,,,0.01,WUHU216HW,2013-02-27 03:56:00,
2013-02-26 20:01:00,43.0,36.0,29.77,North,0,1.6,1.8,76,0.00,,,0.01,WUHU216HW,2013-02-27 04:01:00,
2013-02-26 20:06:00,42.8,36.1,29.77,NNW,338,0.4,1.8,77,0.00,,,0.01,WUHU216HW,2013-02-27 04:06:00,
2013-02-26 20:11:00,42.8,36.1,29.77,NE,45,0.0,2.0,77,0.00,,,0.01,WUHU216HW,2013-02-27 04:11:00,
2013-02-26 20:16:00,42.8,36.1,29.77,NNE,23,1.1,2.0,77,0.00,,,0.01,WUHU216HW,2013-02-27 04:16:00,
2013-02-26 20:21:00,42.7,35.9,29.77,North,0,0.0,1.3,77,0.00,,,0.01,WUHU216HW,2013-02-27 04:21:00,
2013-02-26 20:26:00,42.7,35.9,29.77,NNW,338,0.0,1.3,77,0.00,,,0.01,WUHU216HW,2013-02-27 04:26:00,
2013-02-26 20:31:00,42.7,35.9,29.77,NNW,338,0.0,0.7,77,0.00,,,0.01,WUHU216HW,2013-02-27 04:31:00,
2013-02-26 20:36:00,42.7,35.9,29.78,NNW,338,0.2,0.4,77,0.00,,,0.01,WUHU216HW,2013-02-27 04:36:00,
2013-02-26 20:41:00,42.5,35.7,29.78,North,0,1.1,1.6,77,0.00,,,0.01,WUHU216HW,2013-02-27 04:41:00,
2013-02-26 20:46:00,42.5,35.7,29.78,North,0,1.1,2.9,77,0.00,,,0.01,WUHU216HW,2013-02-27 04:46:00,
2013-02-26 20:51:00,42.3,35.6,29.78,North,0,0.0,2.9,77,0.00,,,0.01,WUHU216HW,2013-02-27 04:51:00,
2013-02-26 20:56:00,42.3,35.6,29.78,North,0,0.0,1.1,77,0.00,,,0.01,WUHU216HW,2013-02-27 04:56:00,
2013-02-26 21:00:00,42.3,35.6,29.78,North,0,0.0,0.0,77,0.00,,,0.01,WUHU216HW,2013-02-27 05:00:00,
2013-02-26 21:05:00,42.3,35.6,29.78,North,0,0.0,0.0,77,0.00,,,0.01,WUHU216HW,2013-02-27 05:05:00,
2013-02-26 21:10:00,42.1,35.7,29.78,North,0,0.0,0.0,78,0.00,,,0.01,WUHU216HW,2013-02-27 05:10:00,
2013-02-26 21:15:00,42.1,35.7,29.78,North,0,0.0,0.0,78,0.00,,,0.01,WUHU216HW,2013-02-27 05:15:00,
2013-02-26 21:20:00,42.1,36.0,29.78,North,0,0.0,0.0,79,0.00,,,0.01,WUHU216HW,2013-02-27 05:20:00,
2013-02-26 21:25:00,42.1,36.0,29.78,North,0,0.0,0.0,79,0.00,,,0.01,WUHU216HW,2013-02-27 05:25:00,
2013-02-26 21:30:00,42.1,36.0,29.78,North,0,0.4,0.9,79,0.00,,,0.01,WUHU216HW,2013-02-27 05:30:00,
2013-02-26 21:35:00,41.9,36.2,29.78,NNE,23,1.1,1.3,80,0.00,,,0.01,WUHU216HW,2013-02-27 05:35:00,
2013-02-26 21:40:00,41.8,36.0,29.78,North,0,0.9,1.3,80,0.00,,,0.01,WUHU216HW,2013-02-27 05:40:00,
2013-02-26 21:45:00,41.8,36.0,29.77,NNE,23,1.1,1.3,80,0.00,,,0.01,WUHU216HW,2013-02-27 05:45:00,
2013-02-26 21:50:00,41.8,36.3,29.78,NNW,338,2.7,2.7,81,0.00,,,0.01,WUHU216HW,2013-02-27 05:50:00,
2013-02-26 21:55:00,41.8,36.3,29.78,NW,315,1.8,3.1,81,0.00,,,0.01,WUHU216HW,2013-02-27 05:55:00,
2013-02-26 22:00:00,41.8,36.0,29.78,NNW,338,1.3,3.1,80,0.00,,,0.01,WUHU216HW,2013-02-27 06:00:00,
2013-02-26 22:05:00,41.8,36.0,29.78,North,0,1.1,3.6,80,0.00,,,0.01,WUHU216HW,2013-02-27 06:05:00,
2013-02-26 22:10:00,41.9,36.2,29.78,North,0,1.8,3.6,80,0.00,,,0.01,WUHU216HW,2013-02-27 06:10:00,
2013-02-26 22:15:00,41.9,36.2,29.77,North,0,1.8,2.5,80,0.00,,,0.01,WUHU216HW,2013-02-27 06:15:00,
2013-02-26 22:20:00,41.9,36.2,29.77,North,0,1.3,1.8,80,0.00,,,0.01,WUHU216HW,2013-02-27 06:20:00,
2013-02-26 22:25:00,41.9,36.5,29.76,NNW,338,0.9,4.0,81,0.00,,,0.01,WUHU216HW,2013-02-27 06:25:00,
2013-02-26 22:30:00,41.9,36.5,29.77,ENE,68,0.7,4.0,81,0.00,,,0.01,WUHU216HW,2013-02-27 06:30:00,
2013-02-26 22:35:00,41.9,36.2,29.77,North,0,0.0,1.8,80,0.00,,,0.01,WUHU216HW,2013-02-27 06:35:00,
2013-02-26 22:40:00,41.9,36.2,29.77,North,0,0.4,1.1,80,0.00,,,0.01,WUHU216HW,2013-02-27 06:40:00,
2013-02-26 22:45:00,41.9,36.2,29.77,North,0,0.0,1.3,80,0.00,,,0.01,WUHU216HW,2013-02-27 06:45:00,
2013-02-26 22:50:00,41.9,36.2,29.77,North,0,2.0,2.0,80,0.00,,,0.01,WUHU216HW,2013-02-27 06:50:00,
2013-02-26 22:55:00,41.9,36.5,29.77,NNE,23,0.4,2.0,81,0.00,,,0.01,WUHU216HW,2013-02-27 06:55:00,
2013-02-26 23:00:00,41.8,36.3,29.77,North,0,1.3,5.4,81,0.00,,,0.01,WUHU216HW,2013-02-27 07:00:00,
2013-02-26 23:05:00,41.8,36.3,29.77,NNE,23,0.4,5.4,81,0.00,,,0.01,WUHU216HW,2013-02-27 07:05:00,
2013-02-26 23:10:00,41.6,36.5,29.77,NNW,338,1.3,2.5,82,0.00,,,0.01,WUHU216HW,2013-02-27 07:10:00,
2013-02-26 23:15:00,41.6,36.5,29.77,NNE,23,0.2,1.8,82,0.00,,,0.01,WUHU216HW,2013-02-27 07:15:00,
2013-02-26 23:20:00,41.6,36.5,29.77,NNE,23,0.9,1.8,82,0.00,,,0.01,WUHU216HW,2013-02-27 07:20:00,
2013-02-26 23:25:00,41.4,36.5,29.77,NNE,23,1.6,1.6,83,0.00,,,0.01,WUHU216HW,2013-02-27 07:25:00,
2013-02-26 23:30:00,41.4,36.3,29.77,NNE,23,0.9,3.1,82,0.00,,,0.01,WUHU216HW,2013-02-27 07:30:00,
2013-02-26 23:35:00,41.2,36.4,29.77,North,0,1.1,3.1,83,0.01,,,0.02,WUHU216HW,2013-02-27 07:35:00,
2013-02-26 23:40:00,41.2,36.4,29.77,North,0,0.0,1.1,83,0.01,,,0.02,WUHU216HW,2013-02-27 07:40:00,
2013-02-26 23:45:00,41.0,36.6,29.78,ENE,68,1.1,2.0,84,0.02,,,0.03,WUHU216HW,2013-02-27 07:45:00,
2013-02-26 23:50:00,40.9,36.4,29.78,NNE,23,0.7,2.0,84,0.02,,,0.03,WUHU216HW,2013-02-27 07:50:00,
2013-02-26 23:55:00,40.7,36.8,29.78,SW,225,2.5,3.4,86,0.02,,,0.03,WUHU216HW,2013-02-27 07:55:00,